METAR Data
IDs: Format: Raw Decoded Include TAF

Data at: 0825 UTC 10 Dec 2022

VTUK 100800Z 08003KT 350V140 9999 SCT035 29/19 Q1010 NOSIG
VTUK 100700Z 04003KT 310V090 9999 SCT035 29/19 Q1010 NOSIG
VTUK 100600Z 35004KT 300V070 9999 FEW030 30/19 Q1011 NOSIG
VTUK 100500Z VRB03KT 9999 FEW030 28/19 Q1013 NOSIG
VTUK 100400Z 07005KT 010V130 CAVOK 27/19 Q1014 NOSIG
VTUK 100300Z 09005KT 030V190 CAVOK 25/19 Q1014 NOSIG
VTUK 100200Z VRB03KT CAVOK 25/19 Q1015 NOSIG
VTUK 100100Z VRB04KT CAVOK 22/19 Q1014 NOSIG
VTUK 100000Z 05002KT CAVOK 20/19 Q1013 NOSIG
VTUK 092300Z 06002KT 9000 NSC 20/19 Q1012 NOSIG
VTUK 092200Z 00000KT 9000 NSC 21/19 Q1012 NOSIG
VTUK 092100Z 00000KT 9000 NSC 21/19 Q1012 NOSIG
VTUK 092000Z 10003KT 050V130 9000 NSC 22/19 Q1012 NOSIG
VTUK 091900Z 09004KT 060V130 9000 NSC 22/20 Q1012 NOSIG
VTUK 091800Z 10004KT 070V130 9000 NSC 23/20 Q1012 NOSIG
VTUK 091700Z VRB01KT 9000 NSC 23/20 Q1012 NOSIG
VTUK 091600Z 00000KT CAVOK 24/20 Q1012 NOSIG
VTUK 091500Z 00000KT CAVOK 24/20 Q1013 NOSIG
VTUK 091400Z 00000KT 9999 FEW030 25/20 Q1012 NOSIG
VTUK 091300Z 00000KT 9999 FEW030 26/20 Q1012 NOSIG
VTUK 091200Z 00000KT 9999 FEW030 27/20 Q1011 NOSIG
VTUK 091100Z VRB01KT 9999 FEW030 28/20 Q1010 NOSIG
VTUK 091000Z 12003KT 040V160 9999 FEW030 30/19 Q1010 NOSIG
VTUK 090900Z VRB02KT 9999 FEW030 30/19 Q1010 NOSIG
VTUK 090800Z 09003KT 040V160 9999 SCT030 29/19 Q1010 NOSIG
VTUK 090700Z VRB05KT 9999 SCT030 29/19 Q1011 NOSIG
VTUK 090600Z 09005KT 040V150 9999 SCT030 29/19 Q1012 NOSIG
VTUK 090500Z 05006KT 340V130 9999 FEW030 28/19 Q1013 NOSIG
VTUK 090400Z 07006KT 350V140 CAVOK 28/19 Q1015 NOSIG
VTUK 090300Z 04007KT 360V080 CAVOK 27/19 Q1015 NOSIG
VTUK 090200Z 01007KT CAVOK 25/19 Q1015 NOSIG
VTUK 090100Z 01005KT 330V040 CAVOK 23/19 Q1014 NOSIG
VTUK 090000Z 32002KT 9000 NSC 21/19 Q1014 NOSIG
VTUK 082300Z 01002KT CAVOK 20/19 Q1013 NOSIG
VTUK 082200Z 06002KT CAVOK 21/18 Q1013 NOSIG
VTUK 082100Z 08003KT CAVOK 22/19 Q1012 NOSIG

VTUD 100800Z 36005KT 320V050 9999 BKN035 30/19 Q1009 NOSIG
VTUD 100700Z VRB03KT 9999 BKN035 31/20 Q1010 NOSIG
VTUD 100600Z VRB03KT 9999 SCT035 30/19 Q1011 NOSIG
VTUD 100500Z VRB03KT 9999 SCT035 28/19 Q1012 NOSIG
VTUD 100400Z VRB03KT 9999 FEW035 28/18 Q1014 NOSIG
VTUD 100300Z VRB02KT 9999 FEW035 SCT080 26/18 Q1014 NOSIG
VTUD 100200Z 09003KT 060V140 9999 FEW035 SCT080 24/17 Q1014 NOSIG
VTUD 100100Z 08004KT 060V120 8000 FEW035 SCT080 23/18 Q1014 NOSIG
VTUD 100000Z VRB02KT 8000 FEW035 SCT080 20/18 Q1013 NOSIG
VTUD 092300Z 11001KT 8000 NSC 20/18 Q1012 NOSIG
VTUD 092200Z 08002KT 9999 FEW035 20/18 Q1011 NOSIG
VTUD 091500Z 11004KT 9000 FEW035 23/20 Q1012 NOSIG
VTUD 091400Z 11002KT 9000 FEW035 24/20 Q1012 NOSIG
VTUD 091300Z VRB01KT 9999 FEW035 24/19 Q1011 NOSIG
VTUD 091200Z 00000KT 9999 FEW035 26/20 Q1010 NOSIG
VTUD 091100Z 00000KT 9999 FEW035 27/19 Q1010 NOSIG
VTUD 091000Z 08003KT 060V120 9999 SCT035 31/18 Q1009 NOSIG
VTUD 090900Z VRB03KT 9999 SCT035 31/18 Q1009 NOSIG
VTUD 090800Z 14003KT 080V210 9999 SCT035 31/18 Q1010 NOSIG
VTUD 090700Z VRB04KT 9999 SCT035 32/18 Q1011 NOSIG
VTUD 090600Z VRB03KT CAVOK 31/19 Q1012 NOSIG
VTUD 090500Z 33004KT 250V020 9999 FEW035 29/18 Q1013 NOSIG
VTUD 090400Z VRB04KT 9999 FEW035 28/18 Q1014 NOSIG
VTUD 090300Z 04004KT 350V100 9999 FEW035 26/17 Q1015 NOSIG
VTUD 090200Z 10005KT 060V140 CAVOK 25/17 Q1015 NOSIG
VTUD 090100Z 00000KT 9000 NSC 23/18 Q1015 NOSIG
VTUD 090000Z 00000KT 8000 NSC 20/18 Q1014 NOSIG
VTUD 082300Z 04003KT 010V090 8000 NSC 20/18 Q1013 NOSIG
VTUD 082200Z 01004KT CAVOK 21/18 Q1013 NOSIG

VTUL 100800Z 09004KT 040V140 9999 FEW030 31/21 Q1009 NOSIG
VTUL 100700Z VRB03KT 9999 SCT030 31/21 Q1010 NOSIG
VTUL 100600Z 22003KT 150V300 9999 FEW030 30/21 Q1011 NOSIG
VTUL 100500Z VRB03KT 9999 FEW030 29/22 Q1013 NOSIG
VTUL 100400Z VRB02KT 9999 FEW030 28/22 Q1014 NOSIG
VTUL 100300Z 15003KT 070V220 9999 FEW030 26/21 Q1014 NOSIG
VTUL 100200Z VRB01KT 9999 FEW030 24/22 Q1014 NOSIG
VTUL 100100Z 00000KT 9999 SCT030 22/21 Q1014 NOSIG
VTUL 100000Z VRB02KT 9000 SCT030 20/20 Q1013 NOSIG
VTUL 092300Z 29003KT 8000 SCT030 19/19 Q1012 NOSIG
VTUL 092200Z 00000KT 8000 FEW030 19/19 Q1012 NOSIG
VTUL 091200Z 26002KT CAVOK 24/21 Q1011 NOSIG
VTUL 091100Z VRB02KT 9999 FEW030 26/22 Q1010 NOSIG
VTUL 091000Z 18003KT 150V210 9999 FEW030 29/21 Q1010 NOSIG
VTUL 090900Z 19004KT 160V220 9999 SCT030 30/20 Q1010 NOSIG
VTUL 090800Z VRB02KT 9999 SCT030 31/20 Q1010 NOSIG
VTUL 090700Z 19005KT 160V230 9999 SCT030 30/20 Q1011 NOSIG
VTUL 090600Z VRB04KT 9999 FEW030 30/21 Q1012 NOSIG
VTUL 090500Z VRB03KT 9999 FEW030 29/21 Q1014 NOSIG
VTUL 090400Z 16004KT 070V230 9999 FEW030 28/20 Q1015 NOSIG
VTUL 090300Z VRB02KT 9999 FEW030 25/21 Q1016 NOSIG
VTUL 090200Z 00000KT 9999 BKN030 22/21 Q1016 NOSIG
VTUL 090100Z VRB02KT 9999 BKN030 21/21 Q1015 NOSIG
VTUL 090000Z 00000KT 9999 BKN030 20/20 Q1014 NOSIG
VTUL 082300Z 00000KT 8000 NSC 19/19 Q1013 NOSIG
VTUL 082200Z 26002KT 8000 NSC 19/19 Q1013 NOSIG

VTUI 100800Z 09003KT 020V130 9999 SCT045 30/19 Q1009 NOSIG
VTUI 100700Z 09003KT 030V160 9999 FEW045 30/20 Q1010 NOSIG
VTUI 100600Z VRB03KT 9999 FEW045 30/19 Q1011 NOSIG
VTUI 100500Z 09004KT 030V170 9999 FEW045 29/19 Q1012 NOSIG
VTUI 100400Z 11006KT 080V150 CAVOK 28/19 Q1013 NOSIG
VTUI 100300Z 12006KT 080V150 CAVOK 26/19 Q1014 NOSIG
VTUI 100200Z 10006KT 040V140 CAVOK 24/19 Q1014 NOSIG
VTUI 100100Z 13004KT 090V160 CAVOK 23/18 Q1013 NOSIG
VTUI 100000Z 16002KT CAVOK 21/18 Q1013 NOSIG
VTUI 092300Z 17002KT CAVOK 19/18 Q1012 NOSIG
VTUI 092200Z 17003KT CAVOK 19/18 Q1012 NOSIG
VTUI 091500Z 13005KT CAVOK 23/19 Q1013 NOSIG
VTUI 091400Z 11006KT 080V140 CAVOK 24/20 Q1012 NOSIG
VTUI 091300Z 13005KT CAVOK 25/19 Q1011 NOSIG
VTUI 091200Z 11006KT CAVOK 26/20 Q1011 NOSIG
VTUI 091100Z 13002KT 9999 FEW045 27/20 Q1010 NOSIG
VTUI 091000Z 11003KT 080V140 9999 FEW045 30/19 Q1009 NOSIG
VTUI 090900Z 11003KT 080V150 9999 FEW045 31/19 Q1009 NOSIG
VTUI 090800Z 12004KT 080V150 9999 FEW045 30/18 Q1010 NOSIG
VTUI 090700Z 07003KT 350V140 9999 FEW045 31/18 Q1010 NOSIG
VTUI 090600Z 11004KT 060V160 9999 FEW045 30/19 Q1012 NOSIG
VTUI 090500Z 11004KT 060V170 9999 FEW045 29/19 Q1013 NOSIG
VTUI 090400Z VRB04KT 9999 FEW045 28/19 Q1014 NOSIG
VTUI 090300Z 08003KT 040V140 9999 FEW030 26/19 Q1015 NOSIG
VTUI 090200Z 12004KT 070V150 CAVOK 25/20 Q1015 NOSIG
VTUI 090100Z 10003KT 070V140 CAVOK 23/19 Q1014 NOSIG
VTUI 090000Z VRB01KT CAVOK 21/19 Q1013 NOSIG
VTUI 082300Z VRB02KT CAVOK 20/18 Q1013 NOSIG
VTUI 082200Z 13002KT CAVOK 20/18 Q1012 NOSIG

VTUW 100800Z 06003KT 360V110 9999 BKN040 30/17 Q1009 NOSIG
VTUW 100700Z 36003KT 290V050 9999 BKN040 29/17 Q1010 NOSIG
VTUW 100600Z VRB03KT 9999 FEW040 30/17 Q1011 NOSIG
VTUW 100500Z 02003KT 300V070 9999 FEW040 29/16 Q1012 NOSIG
VTUW 100400Z 08005KT 030V130 CAVOK 29/17 Q1013 NOSIG
VTUW 100300Z 11004KT 050V150 CAVOK 27/17 Q1014 NOSIG
VTUW 100200Z 13003KT 090V170 CAVOK 25/17 Q1014 NOSIG
VTUW 100100Z 12003KT CAVOK 23/18 Q1014 NOSIG
VTUW 100000Z 00000KT CAVOK 18/17 Q1013 NOSIG
VTUW 092300Z 17002KT CAVOK 17/17 Q1012 NOSIG
VTUW 092200Z 00000KT 9000 NSC 18/18 Q1012 NOSIG
VTUW 091400Z 14006KT CAVOK 22/18 Q1012 NOSIG
VTUW 091300Z 12008KT CAVOK 23/18 Q1012 NOSIG
VTUW 091200Z 13010KT 9999 FEW040 24/18 Q1011 NOSIG
VTUW 091100Z 13008KT 9999 FEW040 26/18 Q1010 NOSIG
VTUW 091000Z 12007KT 9999 FEW040 29/18 Q1010 NOSIG
VTUW 090900Z 12005KT 060V170 9999 FEW040 30/17 Q1010 NOSIG
VTUW 090800Z VRB02KT 9999 FEW040 30/17 Q1010 NOSIG
VTUW 090700Z 12006KT 080V160 9999 FEW040 32/16 Q1011 NOSIG
VTUW 090600Z 11005KT 070V180 CAVOK 30/16 Q1012 NOSIG
VTUW 090500Z 08004KT 020V160 CAVOK 30/16 Q1013 NOSIG
VTUW 090400Z 05006KT 020V100 CAVOK 28/17 Q1014 NOSIG
VTUW 090300Z 05006KT 020V090 CAVOK 27/17 Q1015 NOSIG
VTUW 090200Z VRB01KT CAVOK 25/18 Q1015 NOSIG
VTUW 090100Z VRB02KT CAVOK 23/19 Q1015 NOSIG
VTUW 090000Z 00000KT CAVOK 19/18 Q1013 NOSIG
VTUW 082300Z 00000KT 9000 NSC 17/17 Q1013 NOSIG
VTUW 082200Z 00000KT 9000 NSC 18/17 Q1013 NOSIG